Time;durP1;ratioP1;P1;durP2;ratioP2;P2;SDS_P1;SDS_P2;PMS_P1;PMS_P2;Temp;Humidity;BMP_temperature;BMP_pressure;BME280_temperature;BME280_humidity;BME280_pressure;Samples;Min_cycle;Max_cycle;Signal;HPM_P1;HPM_P2
2023/01/23 00:02:16;;;;;;;29.02;18.27;;;-0.10;85.80;;;;;;4971088;28;20472;-78
2023/01/23 00:04:41;;;;;;;30.95;19.48;;;-0.10;85.70;;;;;;4971232;28;20171;-83
2023/01/23 00:07:07;;;;;;;30.58;19.80;;;-0.10;85.60;;;;;;4971052;28;20030;-78
2023/01/23 00:09:32;;;;;;;28.80;19.67;;;-0.10;85.30;;;;;;4970765;28;20023;-79
2023/01/23 00:11:58;;;;;;;28.38;18.98;;;-0.10;85.40;;;;;;4971129;28;20030;-77
2023/01/23 00:14:24;;;;;;;31.40;19.92;;;-0.10;85.00;;;;;;4970978;28;20170;-82
2023/01/23 00:16:49;;;;;;;29.67;18.50;;;0.00;84.80;;;;;;4971146;28;20051;-82
2023/01/23 00:19:15;;;;;;;31.35;20.38;;;-0.10;84.80;;;;;;4971066;28;20049;-79
2023/01/23 00:21:40;;;;;;;28.30;17.90;;;-0.10;84.90;;;;;;4970894;28;20458;-83
2023/01/23 00:24:09;;;;;;;33.88;20.75;;;-0.10;84.90;;;;;;4970899;28;20023;-81
2023/01/23 00:26:34;;;;;;;29.38;18.83;;;0.00;84.80;;;;;;4971224;28;20080;-82
2023/01/23 00:29:01;;;;;;;30.40;19.75;;;-0.10;84.80;;;;;;4971022;28;20027;-79
2023/01/23 00:31:31;;;;;;;27.98;18.08;;;0.00;84.80;;;;;;4971058;28;20023;-81
2023/01/23 00:34:01;;;;;;;29.20;19.05;;;0.00;84.80;;;;;;4970821;28;20352;-79
2023/01/23 00:36:29;;;;;;;31.25;19.20;;;0.00;84.70;;;;;;4953613;28;20450;-81
2023/01/23 00:38:55;;;;;;;30.05;19.02;;;0.10;84.50;;;;;;4971031;28;20034;-81
2023/01/23 00:41:21;;;;;;;28.67;18.42;;;0.10;84.40;;;;;;4970765;28;20031;-80
2023/01/23 00:43:47;;;;;;;28.00;17.80;;;0.10;84.40;;;;;;4970603;28;20491;-78
2023/01/23 00:46:13;;;;;;;30.30;19.05;;;0.10;84.30;;;;;;4970646;28;20029;-78
2023/01/23 00:48:38;;;;;;;30.45;18.48;;;0.10;84.20;;;;;;4970798;28;20113;-78
2023/01/23 00:51:04;;;;;;;30.70;20.08;;;0.10;84.20;;;;;;4970518;28;20066;-78
2023/01/23 00:53:30;;;;;;;29.50;19.35;;;0.10;84.10;;;;;;4970663;28;20019;-78
2023/01/23 00:55:55;;;;;;;33.45;20.88;;;0.00;84.10;;;;;;4972828;28;20383;-77
2023/01/23 00:58:21;;;;;;;30.40;19.17;;;0.00;84.50;;;;;;4973863;28;20019;-78
2023/01/23 01:00:46;;;;;;;36.70;22.50;;;-0.10;84.60;;;;;;4973577;28;20026;-78
2023/01/23 01:03:12;;;;;;;29.45;19.45;;;-0.10;84.80;;;;;;4973479;28;20484;-77
2023/01/23 01:05:38;;;;;;;37.05;22.10;;;-0.10;84.90;;;;;;4973690;28;20031;-77
2023/01/23 01:08:04;;;;;;;35.17;22.20;;;-0.10;85.10;;;;;;4973446;28;20102;-78
2023/01/23 01:10:31;;;;;;;34.65;22.52;;;-0.10;85.20;;;;;;4973696;28;20019;-77
2023/01/23 01:12:58;;;;;;;34.65;20.90;;;-0.10;85.40;;;;;;4973442;28;20039;-78
2023/01/23 01:15:25;;;;;;;32.67;21.17;;;-0.10;85.30;;;;;;4973640;28;20097;-77
2023/01/23 01:17:53;;;;;;;34.10;21.75;;;-0.10;85.40;;;;;;4973413;28;20475;-78
2023/01/23 01:20:19;;;;;;;34.85;20.98;;;0.00;85.30;;;;;;4973771;28;20061;-77
2023/01/23 01:22:45;;;;;;;33.47;20.60;;;0.00;85.20;;;;;;4973523;28;20018;-80
2023/01/23 01:25:10;;;;;;;35.40;21.77;;;0.00;85.10;;;;;;4973551;28;20387;-78
2023/01/23 01:27:36;;;;;;;32.13;20.85;;;0.00;85.00;;;;;;4973303;28;20023;-79
2023/01/23 01:30:02;;;;;;;33.10;21.20;;;0.00;84.80;;;;;;4973425;28;20045;-79
2023/01/23 01:32:27;;;;;;;33.45;20.73;;;0.00;84.70;;;;;;4973388;28;20110;-81
2023/01/23 01:34:53;;;;;;;37.03;21.95;;;0.00;84.70;;;;;;4973272;28;20439;-80
2023/01/23 01:37:21;;;;;;;32.92;20.85;;;0.10;84.90;;;;;;4973336;28;20058;-82
2023/01/23 01:39:47;;;;;;;31.90;20.98;;;0.10;84.80;;;;;;4973225;28;20033;-79
2023/01/23 01:42:13;;;;;;;31.58;20.38;;;0.20;84.60;;;;;;4973231;28;20042;-77
2023/01/23 01:45:29;;;;;;;32.65;20.55;;;0.20;84.60;;;;;;4973056;28;20023;-82
2023/01/23 01:47:55;;;;;;;33.23;21.17;;;0.20;84.50;;;;;;4981516;28;20083;-78
2023/01/23 01:50:20;;;;;;;32.22;20.90;;;0.20;84.30;;;;;;4973260;28;20337;-82
2023/01/23 01:52:46;;;;;;;28.60;18.85;;;0.20;84.20;;;;;;4974591;28;20395;-80
2023/01/23 01:55:11;;;;;;;29.92;19.85;;;0.20;84.20;;;;;;4973509;28;20022;-81
2023/01/23 01:57:43;;;;;;;32.28;19.45;;;0.30;84.10;;;;;;4973004;28;20029;-78
2023/01/23 02:00:14;;;;;;;30.45;20.17;;;0.30;84.00;;;;;;4972953;28;20070;-82
2023/01/23 02:02:57;;;;;;;32.88;20.90;;;0.30;83.80;;;;;;4973049;28;20034;-79
2023/01/23 02:05:32;;;;;;;30.20;20.08;;;0.30;83.80;;;;;;4977493;28;20046;-77
2023/01/23 02:08:24;;;;;;;22.97;14.67;;;0.30;83.80;;;;;;4968762;28;20027;-77
2023/01/23 02:10:51;;;;;;;31.30;20.08;;;0.40;83.70;;;;;;4953433;29;20451;-78
2023/01/23 02:13:31;;;;;;;32.75;20.48;;;0.40;83.40;;;;;;4947670;28;20157;-78
2023/01/23 02:15:58;;;;;;;32.65;20.80;;;0.40;83.30;;;;;;4934487;29;20027;-78
2023/01/23 02:18:25;;;;;;;32.00;20.42;;;0.30;83.20;;;;;;4934389;28;20028;-78
2023/01/23 02:20:52;;;;;;;35.97;22.30;;;0.30;83.30;;;;;;4934178;28;20034;-78
2023/01/23 02:23:32;;;;;;;32.40;20.65;;;0.30;83.30;;;;;;4934138;28;20036;-77
2023/01/23 02:26:06;;;;;;;34.03;20.95;;;0.30;83.40;;;;;;4934164;28;20078;-78
2023/01/23 02:28:40;;;;;;;34.75;22.40;;;0.30;83.50;;;;;;4934169;29;20442;-79
2023/01/23 02:31:06;;;;;;;41.28;23.73;;;0.30;83.70;;;;;;4933998;28;20039;-79
2023/01/23 02:33:32;;;;;;;38.33;22.27;;;0.20;83.70;;;;;;4934065;28;20032;-81
2023/01/23 02:35:58;;;;;;;42.00;24.58;;;0.20;84.00;;;;;;4934051;28;20023;-78
2023/01/23 02:38:30;;;;;;;38.30;23.50;;;0.20;84.20;;;;;;4933868;28;20539;-79
2023/01/23 02:40:59;;;;;;;39.05;24.02;;;0.20;84.40;;;;;;4934080;29;20032;-76
2023/01/23 02:43:27;;;;;;;36.58;23.35;;;0.20;84.40;;;;;;4933787;28;20485;-79
2023/01/23 02:45:53;;;;;;;34.50;21.73;;;0.20;84.40;;;;;;4933844;28;20464;-78
2023/01/23 02:48:20;;;;;;;37.95;23.73;;;0.20;84.50;;;;;;4933723;28;20035;-79
2023/01/23 02:50:45;;;;;;;36.42;22.98;;;0.20;84.50;;;;;;4933923;28;20036;-78
2023/01/23 02:53:12;;;;;;;39.42;23.27;;;0.20;84.40;;;;;;4933745;29;20055;-79
2023/01/23 02:55:42;;;;;;;36.78;21.80;;;0.20;84.30;;;;;;4933752;28;20372;-79
2023/01/23 03:00:51;;;;;;;35.08;22.02;;;0.20;84.10;;;;;;4933899;29;20034;-78
2023/01/23 03:03:17;;;;;;;33.78;21.33;;;0.20;84.10;;;;;;4933586;28;20039;-83
2023/01/23 03:05:43;;;;;;;34.10;20.92;;;0.20;84.10;;;;;;4933472;29;20028;-78
2023/01/23 03:08:08;;;;;;;25.80;16.30;;;0.20;84.10;;;;;;4932606;28;20118;-83
2023/01/23 03:10:34;;;;;;;13.00;9.32;;;0.20;83.50;;;;;;4933599;29;20028;-79
2023/01/23 03:13:06;;;;;;;11.13;7.03;;;0.20;82.40;;;;;;4933408;28;20047;-78
2023/01/23 03:15:32;;;;;;;12.60;7.60;;;0.20;79.20;;;;;;4933400;29;20032;-79
2023/01/23 03:17:58;;;;;;;11.75;7.03;;;0.20;78.50;;;;;;4932651;28;20038;-79
2023/01/23 03:20:25;;;;;;;9.82;6.88;;;0.20;76.90;;;;;;4932111;28;20126;-79
2023/01/23 03:22:52;;;;;;;9.88;7.25;;;0.30;76.80;;;;;;4933164;28;20038;-79
2023/01/23 03:25:17;;;;;;;10.18;7.13;;;0.30;76.70;;;;;;4933309;28;20090;-78
2023/01/23 03:27:43;;;;;;;8.13;5.30;;;0.30;76.40;;;;;;4933284;28;20032;-78
2023/01/23 03:30:14;;;;;;;7.20;5.38;;;0.30;75.40;;;;;;4933282;28;20090;-77
2023/01/23 03:32:41;;;;;;;7.55;5.35;;;0.30;73.00;;;;;;4932974;28;20028;-79
2023/01/23 03:35:13;;;;;;;7.38;4.82;;;0.20;73.80;;;;;;4933127;28;20027;-77
2023/01/23 03:37:39;;;;;;;7.43;5.10;;;0.20;72.80;;;;;;4933333;29;20460;-79
2023/01/23 03:42:49;;;;;;;6.93;5.10;;;0.20;72.60;;;;;;4932903;29;20082;-78
2023/01/23 03:45:15;;;;;;;8.50;4.72;;;0.30;72.50;;;;;;4933085;28;20059;-78
2023/01/23 03:47:40;;;;;;;5.68;4.15;;;0.20;72.00;;;;;;4933056;28;20031;-80
2023/01/23 03:50:06;;;;;;;5.55;4.03;;;0.20;71.30;;;;;;4932866;28;20034;-78
2023/01/23 03:52:32;;;;;;;5.70;3.83;;;0.20;70.50;;;;;;4933042;29;20074;-79
2023/01/23 03:54:58;;;;;;;5.35;3.92;;;0.10;70.70;;;;;;4932883;28;20028;-77
2023/01/23 03:57:23;;;;;;;5.50;3.65;;;0.10;70.20;;;;;;4932884;29;20027;-79
2023/01/23 03:59:49;;;;;;;6.03;3.65;;;0.10;69.70;;;;;;4932848;28;20035;-78
2023/01/23 04:02:15;;;;;;;5.22;3.70;;;0.10;69.70;;;;;;4932940;28;20050;-78
2023/01/23 04:04:40;;;;;;;4.95;3.58;;;0.10;70.00;;;;;;4933069;29;20110;-79
2023/01/23 04:07:07;;;;;;;5.57;3.78;;;0.10;70.30;;;;;;4932066;28;20051;-78
2023/01/23 04:09:32;;;;;;;6.75;4.28;;;0.00;70.40;;;;;;4932903;29;20058;-83
2023/01/23 04:11:58;;;;;;;4.90;3.78;;;0.10;70.60;;;;;;4932600;28;20098;-78
2023/01/23 04:14:25;;;;;;;5.43;3.88;;;0.10;70.50;;;;;;4932691;28;20135;-77
2023/01/23 04:16:52;;;;;;;4.25;3.30;;;0.10;70.20;;;;;;4932627;28;20028;-78
2023/01/23 04:19:18;;;;;;;5.50;3.63;;;0.10;70.00;;;;;;4932740;28;20049;-77
2023/01/23 04:21:45;;;;;;;4.82;3.60;;;0.10;70.40;;;;;;4932525;28;20476;-77
2023/01/23 04:24:11;;;;;;;5.15;3.40;;;0.10;70.10;;;;;;4932539;28;20469;-77
2023/01/23 04:26:37;;;;;;;4.90;3.58;;;0.10;70.30;;;;;;4932304;28;20058;-77
2023/01/23 04:29:03;;;;;;;4.90;3.30;;;0.10;70.20;;;;;;4932617;29;20028;-78
2023/01/23 04:31:29;;;;;;;5.15;3.80;;;0.10;70.20;;;;;;4935481;28;20020;-78
2023/01/23 04:33:54;;;;;;;4.85;3.50;;;0.10;70.40;;;;;;4935770;29;20028;-78
2023/01/23 04:36:20;;;;;;;4.97;3.72;;;0.10;70.30;;;;;;4935649;28;20103;-78
2023/01/23 04:38:46;;;;;;;4.72;3.53;;;0.10;70.20;;;;;;4935628;28;20039;-78
2023/01/23 04:41:26;;;;;;;4.78;3.38;;;0.10;70.20;;;;;;4935644;28;20024;-81
2023/01/23 04:43:51;;;;;;;4.38;3.33;;;0.10;70.20;;;;;;4934086;28;20098;-78
2023/01/23 04:46:17;;;;;;;5.85;3.55;;;0.10;70.10;;;;;;4935270;28;20388;-78
2023/01/23 04:48:43;;;;;;;4.93;3.55;;;0.10;70.20;;;;;;4935524;28;20035;-78
2023/01/23 04:51:08;;;;;;;5.13;3.50;;;0.10;70.40;;;;;;4935623;28;20032;-79
2023/01/23 04:53:34;;;;;;;6.15;4.03;;;0.10;70.80;;;;;;4939980;28;20031;-78
2023/01/23 04:56:00;;;;;;;5.10;3.80;;;0.20;71.10;;;;;;4956293;28;20054;-77
2023/01/23 04:58:26;;;;;;;9.07;4.07;;;0.10;71.30;;;;;;4939587;28;20397;-78
2023/01/23 05:00:51;;;;;;;4.68;3.42;;;0.20;71.50;;;;;;4935396;28;20094;-78
2023/01/23 05:03:17;;;;;;;5.30;3.70;;;0.20;71.30;;;;;;4933821;28;20044;-78
2023/01/23 05:05:43;;;;;;;5.85;3.88;;;0.20;70.60;;;;;;4935473;29;20028;-78
2023/01/23 05:08:10;;;;;;;5.25;3.53;;;0.20;70.60;;;;;;4935271;28;20031;-79
2023/01/23 05:10:35;;;;;;;6.03;4.30;;;0.20;70.80;;;;;;4933961;29;20032;-78
2023/01/23 05:13:02;;;;;;;5.95;3.95;;;0.20;72.00;;;;;;4934955;28;20043;-78
2023/01/23 05:15:28;;;;;;;5.78;3.85;;;0.20;71.30;;;;;;4935149;29;20027;-78
2023/01/23 05:17:53;;;;;;;5.93;3.75;;;0.30;70.90;;;;;;4935251;28;20054;-78
2023/01/23 05:20:19;;;;;;;5.95;3.92;;;0.20;70.50;;;;;;4935143;29;20425;-78
2023/01/23 05:22:51;;;;;;;6.13;4.35;;;0.20;71.20;;;;;;4935535;28;20035;-77
2023/01/23 05:25:23;;;;;;;5.78;4.00;;;0.20;71.30;;;;;;4933880;28;20113;-77
2023/01/23 05:27:49;;;;;;;6.88;4.30;;;0.20;71.40;;;;;;4942375;28;20074;-77
2023/01/23 05:30:15;;;;;;;5.68;3.92;;;0.20;71.70;;;;;;4935017;28;20035;-77
2023/01/23 05:32:41;;;;;;;4.93;3.72;;;0.20;71.40;;;;;;4934855;28;20437;-77
2023/01/23 05:35:07;;;;;;;6.80;3.58;;;0.20;70.90;;;;;;4935006;28;20039;-78
2023/01/23 05:37:33;;;;;;;4.90;3.70;;;0.20;70.50;;;;;;4934883;28;20433;-81
2023/01/23 05:39:58;;;;;;;6.40;4.50;;;0.10;70.70;;;;;;4934960;28;20062;-78
2023/01/23 05:42:24;;;;;;;7.32;4.32;;;0.20;71.10;;;;;;4934588;28;20526;-78
2023/01/23 05:44:49;;;;;;;5.10;3.92;;;0.20;71.20;;;;;;4934788;28;20110;-78
2023/01/23 05:47:15;;;;;;;4.68;3.55;;;0.20;71.30;;;;;;4934641;28;20030;-77
2023/01/23 05:49:40;;;;;;;6.15;4.20;;;0.20;71.20;;;;;;4935012;28;20055;-80
2023/01/23 05:52:06;;;;;;;6.78;3.33;;;0.30;71.00;;;;;;4934534;28;20039;-78
2023/01/23 05:54:32;;;;;;;5.57;4.03;;;0.20;70.80;;;;;;4933470;28;20038;-79
2023/01/23 05:56:57;;;;;;;5.22;3.80;;;0.20;70.90;;;;;;4934278;28;20476;-78
2023/01/23 05:59:23;;;;;;;6.32;4.40;;;0.20;70.90;;;;;;4934634;28;20039;-78
2023/01/23 06:01:48;;;;;;;5.22;4.25;;;0.30;71.10;;;;;;4934262;28;20491;-77
2023/01/23 06:04:15;;;;;;;5.15;3.85;;;0.30;71.30;;;;;;4934448;28;20496;-77
2023/01/23 06:06:41;;;;;;;7.68;4.43;;;0.30;71.40;;;;;;4934469;28;20043;-77
2023/01/23 06:09:07;;;;;;;6.43;4.40;;;0.20;71.50;;;;;;4934422;28;20114;-78
2023/01/23 06:11:33;;;;;;;8.30;4.97;;;0.30;71.80;;;;;;4933007;28;20477;-78
2023/01/23 06:13:59;;;;;;;8.95;5.85;;;0.30;72.00;;;;;;4934041;28;20493;-76
2023/01/23 06:16:24;;;;;;;10.07;6.18;;;0.20;72.60;;;;;;4934332;28;20028;-77
2023/01/23 06:18:50;;;;;;;11.73;6.65;;;0.30;73.00;;;;;;4934088;28;20056;-80
2023/01/23 06:21:17;;;;;;;16.00;8.30;;;0.20;72.90;;;;;;4933864;28;20028;-77
2023/01/23 06:23:43;;;;;;;17.48;8.00;;;0.20;73.20;;;;;;4934017;28;20036;-77
2023/01/23 06:26:10;;;;;;;25.00;10.20;;;0.20;73.10;;;;;;4934032;29;20066;-77
2023/01/23 06:28:36;;;;;;;26.92;10.48;;;0.20;73.40;;;;;;4933619;28;20038;-79
2023/01/23 06:31:02;;;;;;;17.80;10.10;;;0.20;73.40;;;;;;4933409;29;20028;-77
2023/01/23 06:33:29;;;;;;;18.45;11.57;;;0.20;75.00;;;;;;4933758;28;20538;-80
2023/01/23 06:35:59;;;;;;;20.70;13.18;;;0.10;75.70;;;;;;4934050;29;20052;-77
2023/01/23 06:38:25;;;;;;;19.92;12.00;;;0.20;75.80;;;;;;4934081;28;20473;-78
2023/01/23 06:40:51;;;;;;;19.70;10.85;;;0.20;76.10;;;;;;4933845;29;20034;-77
2023/01/23 06:43:16;;;;;;;13.65;9.23;;;0.20;76.00;;;;;;4933905;28;20042;-77
2023/01/23 06:45:45;;;;;;;12.65;8.02;;;0.20;75.90;;;;;;4932618;29;20031;-77
2023/01/23 06:48:11;;;;;;;12.05;8.00;;;0.30;75.90;;;;;;4932583;28;20066;-77
2023/01/23 06:50:39;;;;;;;15.93;9.25;;;0.30;75.50;;;;;;4933697;28;20020;-77
2023/01/23 06:53:05;;;;;;;19.13;11.00;;;0.30;75.30;;;;;;4932849;28;20032;-76
2023/01/23 06:55:31;;;;;;;17.48;10.70;;;0.30;75.60;;;;;;4933552;28;20026;-77
2023/01/23 06:57:57;;;;;;;17.05;9.73;;;0.30;75.90;;;;;;4933631;28;20031;-78
2023/01/23 07:00:22;;;;;;;12.88;8.68;;;0.20;75.60;;;;;;4933437;28;20082;-76
2023/01/23 07:02:48;;;;;;;14.25;8.55;;;0.20;74.70;;;;;;4933298;29;20040;-76
2023/01/23 07:05:14;;;;;;;13.95;9.05;;;0.10;74.80;;;;;;4933136;28;20554;-79
2023/01/23 07:07:40;;;;;;;15.07;9.23;;;0.10;75.00;;;;;;4933576;29;20036;-79
2023/01/23 07:10:06;;;;;;;14.10;8.65;;;0.20;75.20;;;;;;4935896;28;20085;-77
2023/01/23 07:12:31;;;;;;;13.77;9.02;;;0.20;75.20;;;;;;4935139;28;20034;-78
2023/01/23 07:14:57;;;;;;;11.70;7.50;;;0.30;75.10;;;;;;4932540;28;20134;-76
2023/01/23 07:17:23;;;;;;;11.13;6.85;;;0.30;74.80;;;;;;4933778;28;20472;-77
2023/01/23 07:19:49;;;;;;;11.10;7.38;;;0.30;74.00;;;;;;4936510;28;20457;-83
2023/01/23 07:22:18;;;;;;;21.30;12.15;;;0.20;73.70;;;;;;4938806;28;20028;-81
2023/01/23 07:24:44;;;;;;;22.30;11.88;;;0.30;74.00;;;;;;4934605;28;20028;-80
2023/01/23 07:27:10;;;;;;;24.30;15.18;;;0.30;74.80;;;;;;4934285;29;20034;-81
2023/01/23 07:29:35;;;;;;;24.17;14.27;;;0.20;76.10;;;;;;4938626;28;20035;-82
2023/01/23 07:32:01;;;;;;;25.13;15.80;;;0.20;76.70;;;;;;4932999;29;20032;-77
2023/01/23 07:34:27;;;;;;;26.52;17.20;;;0.20;77.90;;;;;;4932880;28;20102;-78
2023/01/23 07:36:52;;;;;;;28.85;16.35;;;0.10;78.30;;;;;;4932978;28;20115;-77
2023/01/23 07:39:18;;;;;;;26.55;15.75;;;0.10;78.60;;;;;;4931654;28;20028;-75
2023/01/23 07:41:43;;;;;;;28.80;17.95;;;0.10;79.10;;;;;;4932872;28;20102;-75
2023/01/23 07:44:16;;;;;;;32.55;18.23;;;0.30;80.50;;;;;;4932792;28;20058;-74
2023/01/23 07:46:42;;;;;;;33.85;20.50;;;0.40;81.60;;;;;;4932954;29;20062;-74
2023/01/23 07:49:07;;;;;;;33.63;19.92;;;0.40;81.00;;;;;;4932980;28;20048;-74
2023/01/23 07:51:34;;;;;;;31.38;19.08;;;0.50;81.10;;;;;;4932831;29;20040;-76
2023/01/23 07:53:59;;;;;;;29.05;17.45;;;0.60;80.70;;;;;;4932683;28;20028;-74
2023/01/23 07:56:25;;;;;;;34.13;18.42;;;0.70;80.00;;;;;;4931384;29;20038;-78
2023/01/23 07:58:50;;;;;;;32.35;19.13;;;0.90;83.10;;;;;;4932705;28;20423;-76
2023/01/23 08:01:18;;;;;;;30.60;18.85;;;1.30;85.00;;;;;;4932406;29;20028;-77
2023/01/23 08:03:44;;;;;;;26.15;17.25;;;1.70;82.20;;;;;;4932810;28;20055;-77
2023/01/23 08:06:09;;;;;;;27.13;15.93;;;1.90;78.50;;;;;;4936142;29;20031;-76
2023/01/23 08:08:35;;;;;;;26.52;16.63;;;2.10;77.90;;;;;;4936131;29;20035;-76
2023/01/23 08:11:05;;;;;;;26.08;16.88;;;2.30;76.40;;;;;;4935758;28;20024;-77
2023/01/23 08:13:31;;;;;;;24.50;15.77;;;2.70;75.30;;;;;;4935789;28;20048;-77
2023/01/23 08:15:57;;;;;;;24.20;15.23;;;2.90;72.90;;;;;;4935660;28;20038;-77
2023/01/23 08:18:24;;;;;;;20.48;13.95;;;3.20;71.50;;;;;;4935819;28;20024;-75
2023/01/23 08:20:54;;;;;;;23.92;14.82;;;3.10;69.70;;;;;;4935804;28;20046;-75
2023/01/23 08:23:23;;;;;;;23.63;15.02;;;2.70;69.00;;;;;;4936062;29;20361;-76
2023/01/23 08:25:55;;;;;;;25.02;15.55;;;2.40;70.90;;;;;;4934961;28;20056;-78
2023/01/23 08:28:22;;;;;;;25.35;14.88;;;2.00;71.00;;;;;;4935782;28;20056;-77
2023/01/23 08:30:48;;;;;;;23.85;14.95;;;1.80;71.90;;;;;;4935665;28;20020;-77
2023/01/23 08:33:14;;;;;;;24.02;15.10;;;1.60;72.60;;;;;;4935824;29;20039;-76
2023/01/23 08:35:51;;;;;;;22.70;14.63;;;1.40;73.40;;;;;;4935427;28;20098;-75
2023/01/23 08:38:18;;;;;;;22.92;15.10;;;1.30;73.90;;;;;;4935551;29;20118;-81
2023/01/23 08:40:44;;;;;;;23.38;14.80;;;1.20;74.40;;;;;;4935832;28;20042;-83
2023/01/23 08:43:12;;;;;;;26.73;16.55;;;1.00;74.90;;;;;;4935733;28;20054;-75
2023/01/23 08:45:39;;;;;;;25.25;17.45;;;0.90;75.60;;;;;;4935592;28;20020;-74
2023/01/23 08:48:06;;;;;;;30.42;17.77;;;0.90;76.30;;;;;;4935404;29;20028;-74
2023/01/23 08:50:32;;;;;;;34.45;20.50;;;0.90;76.60;;;;;;4935328;28;20028;-78
2023/01/23 08:52:57;;;;;;;32.75;20.35;;;0.90;77.70;;;;;;4935272;29;20107;-77
2023/01/23 08:55:23;;;;;;;36.65;20.13;;;0.80;78.30;;;;;;4934791;28;20070;-78
2023/01/23 08:57:48;;;;;;;35.30;21.33;;;0.90;78.30;;;;;;4934928;29;20035;-75
2023/01/23 09:00:14;;;;;;;28.63;16.80;;;0.90;78.40;;;;;;4934895;28;20028;-76
2023/01/23 09:02:40;;;;;;;26.95;17.25;;;1.00;78.20;;;;;;4933742;29;20043;-76
2023/01/23 09:05:06;;;;;;;31.58;19.08;;;1.10;79.00;;;;;;4936116;28;20032;-75
2023/01/23 09:07:35;;;;;;;35.90;20.80;;;1.10;78.10;;;;;;4935234;29;20031;-78
2023/01/23 09:10:01;;;;;;;30.60;18.77;;;1.10;77.90;;;;;;4935054;28;20028;-76
2023/01/23 09:12:26;;;;;;;30.20;18.38;;;1.00;78.50;;;;;;4935751;29;20054;-76
2023/01/23 09:14:52;;;;;;;35.17;20.73;;;0.90;79.30;;;;;;4953374;28;20123;-78
2023/01/23 09:17:17;;;;;;;32.45;18.95;;;0.80;79.70;;;;;;4953646;28;20106;-78
2023/01/23 09:19:43;;;;;;;32.53;20.05;;;0.90;79.60;;;;;;4953969;28;20019;-79
2023/01/23 09:22:08;;;;;;;27.65;17.83;;;0.90;79.40;;;;;;4953760;29;20447;-76
2023/01/23 09:24:34;;;;;;;30.40;18.45;;;0.90;79.20;;;;;;4954086;28;20457;-77
2023/01/23 09:26:59;;;;;;;33.08;19.70;;;0.90;79.10;;;;;;4954005;29;20023;-75
2023/01/23 09:29:25;;;;;;;35.08;20.35;;;0.80;79.50;;;;;;4953834;29;20092;-74
2023/01/23 09:31:51;;;;;;;38.45;19.77;;;0.80;79.80;;;;;;4954129;29;20023;-75
2023/01/23 09:34:16;;;;;;;31.20;19.15;;;0.80;79.80;;;;;;4953853;28;20430;-76
2023/01/23 09:36:42;;;;;;;30.90;17.83;;;0.70;80.10;;;;;;4953624;28;20495;-77
2023/01/23 09:39:07;;;;;;;27.15;16.38;;;0.70;79.90;;;;;;4953643;28;20383;-77
2023/01/23 09:41:33;;;;;;;31.63;18.42;;;0.80;79.70;;;;;;4953745;28;20051;-75
2023/01/23 09:44:14;;;;;;;32.40;19.17;;;0.80;79.60;;;;;;4953602;28;20113;-74
2023/01/23 09:46:50;;;;;;;27.80;17.27;;;0.80;79.50;;;;;;4953641;29;20020;-74
2023/01/23 09:49:18;;;;;;;29.17;18.02;;;0.90;79.50;;;;;;4953628;29;20023;-77
2023/01/23 09:52:11;;;;;;;33.05;19.42;;;0.80;79.30;;;;;;4953440;28;20023;-76
2023/01/23 09:54:47;;;;;;;29.90;18.38;;;0.60;79.90;;;;;;4953486;28;20043;-78
2023/01/23 09:57:21;;;;;;;27.65;17.10;;;0.50;80.60;;;;;;4953685;29;20023;-76
2023/01/23 09:59:58;;;;;;;32.38;18.15;;;0.60;80.70;;;;;;4953540;29;20419;-75
2023/01/23 10:02:24;;;;;;;30.00;18.42;;;0.70;80.90;;;;;;4953313;29;20393;-75
2023/01/23 10:04:51;;;;;;;28.98;16.80;;;0.70;80.60;;;;;;4953530;28;20035;-75
2023/01/23 10:07:51;;;;;;;28.45;16.85;;;0.80;80.30;;;;;;4952620;28;20020;-78
2023/01/23 10:10:43;;;;;;;29.27;16.67;;;0.90;80.10;;;;;;4953210;29;20023;-75
2023/01/23 10:13:32;;;;;;;31.25;17.63;;;1.00;79.80;;;;;;4957171;28;20039;-76
2023/01/23 10:16:17;;;;;;;27.58;17.45;;;1.00;79.80;;;;;;4972693;28;20027;-80
2023/01/23 10:18:53;;;;;;;26.40;16.20;;;1.10;79.60;;;;;;4972501;28;20069;-77
2023/01/23 10:21:35;;;;;;;30.00;16.70;;;1.20;79.10;;;;;;5055659;28;20023;-75
2023/01/23 10:24:29;;;;;;;28.83;17.23;;;1.30;78.50;;;;;;4972570;28;20387;-79
2023/01/23 10:27:02;;;;;;;28.38;17.08;;;1.30;77.90;;;;;;4972650;28;20115;-74
2023/01/23 10:29:33;;;;;;;26.20;16.55;;;1.30;78.00;;;;;;4972415;28;20429;-77
2023/01/23 10:32:04;;;;;;;29.85;17.00;;;1.30;78.10;;;;;;4972361;28;20117;-78
2023/01/23 10:34:55;;;;;;;30.70;17.60;;;1.40;77.90;;;;;;4972221;28;20022;-78
2023/01/23 10:37:44;;;;;;;29.38;17.95;;;1.30;78.30;;;;;;4972355;28;20027;-80
2023/01/23 10:41:12;;;;;;;30.23;17.88;;;1.30;78.40;;;;;;4972305;28;20402;-82
2023/01/23 10:43:14;;;;;;;32.67;17.90;;;1.30;78.50;;;;;;4972270;28;20069;-82
2023/01/23 10:45:41;;;;;;;25.92;16.15;;;1.20;78.10;;;;;;5055227;28;20027;-77
2023/01/23 10:48:31;;;;;;;31.23;16.33;;;1.20;78.70;;;;;;4967106;28;20027;-75
2023/01/23 10:51:02;;;;;;;30.58;17.45;;;1.20;78.80;;;;;;4954952;28;20023;-76
2023/01/23 10:53:27;;;;;;;27.73;17.02;;;1.20;78.50;;;;;;4961835;28;20015;-75
2023/01/23 10:55:57;;;;;;;32.03;19.08;;;1.10;78.60;;;;;;4947483;28;20164;-74
2023/01/23 10:58:39;;;;;;;28.80;17.13;;;1.00;78.80;;;;;;4965937;28;20026;-76
2023/01/23 11:01:18;;;;;;;30.67;17.55;;;1.00;78.80;;;;;;4962023;28;20027;-74
2023/01/23 11:03:44;;;;;;;33.42;18.95;;;0.90;79.10;;;;;;4961644;28;20034;-75
2023/01/23 11:06:17;;;;;;;29.38;17.60;;;0.90;79.40;;;;;;5043944;28;20026;-74
2023/01/23 11:08:54;;;;;;;29.23;16.92;;;0.80;79.60;;;;;;4961552;28;20045;-75
2023/01/23 11:11:27;;;;;;;29.00;17.45;;;0.90;79.90;;;;;;4961255;28;20015;-75
2023/01/23 11:14:15;;;;;;;27.48;17.25;;;0.80;79.70;;;;;;4969204;28;20050;-76
2023/01/23 11:16:42;;;;;;;27.83;16.52;;;0.80;79.70;;;;;;5040994;28;20053;-75
2023/01/23 11:19:07;;;;;;;30.60;17.73;;;0.80;79.60;;;;;;4934981;29;20161;-77
2023/01/23 11:21:35;;;;;;;29.60;17.10;;;0.90;79.80;;;;;;4952394;28;20054;-76
2023/01/23 11:24:19;;;;;;;29.73;16.23;;;1.00;79.50;;;;;;4952157;29;20039;-76
2023/01/23 11:26:45;;;;;;;31.48;17.65;;;1.00;79.20;;;;;;4952165;28;20031;-77
2023/01/23 11:29:25;;;;;;;30.38;17.77;;;0.90;79.00;;;;;;4952216;28;20031;-76
2023/01/23 11:32:00;;;;;;;30.02;18.02;;;0.80;79.40;;;;;;4951870;28;20055;-75
2023/01/23 11:34:33;;;;;;;35.23;17.97;;;0.90;79.80;;;;;;4934761;28;20059;-77
2023/01/23 11:37:13;;;;;;;34.15;18.67;;;0.80;79.80;;;;;;4951986;28;20034;-76
2023/01/23 11:40:01;;;;;;;31.95;18.08;;;0.80;80.20;;;;;;4951570;29;20085;-78
2023/01/23 11:42:27;;;;;;;29.73;16.95;;;0.80;80.20;;;;;;4951985;29;20480;-77
2023/01/23 11:44:55;;;;;;;33.55;18.33;;;0.90;80.30;;;;;;4951798;28;20035;-78
2023/01/23 11:47:44;;;;;;;35.30;19.75;;;0.90;80.10;;;;;;4951783;28;20408;-77
2023/01/23 11:50:23;;;;;;;36.03;20.15;;;0.90;80.10;;;;;;4951401;29;20152;-77
2023/01/23 11:52:54;;;;;;;35.85;20.33;;;0.90;80.50;;;;;;4951332;29;20034;-77
2023/01/23 11:55:38;;;;;;;31.58;19.85;;;0.80;81.00;;;;;;4933924;29;20031;-78
2023/01/23 11:58:28;;;;;;;36.08;20.20;;;0.80;81.00;;;;;;4951316;29;20034;-77
2023/01/23 12:01:14;;;;;;;34.70;20.52;;;0.90;81.10;;;;;;4951166;28;20019;-76
2023/01/23 12:04:19;;;;;;;38.28;21.88;;;0.90;81.20;;;;;;4951408;28;20050;-76
2023/01/23 12:07:08;;;;;;;39.00;21.00;;;0.90;81.30;;;;;;4951559;29;20024;-77
2023/01/23 12:09:57;;;;;;;38.92;20.75;;;0.80;81.20;;;;;;4951605;29;20093;-76
2023/01/23 12:12:32;;;;;;;39.28;21.83;;;0.80;81.60;;;;;;4951597;28;20023;-79
2023/01/23 12:15:08;;;;;;;34.35;20.33;;;0.70;81.80;;;;;;4951252;28;20138;-75
2023/01/23 12:17:36;;;;;;;34.70;19.58;;;0.70;82.00;;;;;;4951193;29;20148;-76
2023/01/23 12:20:42;;;;;;;33.33;19.77;;;0.60;81.90;;;;;;4951519;28;20062;-77
2023/01/23 12:23:35;;;;;;;33.47;19.58;;;0.60;81.80;;;;;;4951584;29;20039;-77
2023/01/23 12:26:21;;;;;;;38.85;21.45;;;0.60;82.10;;;;;;4952821;29;20053;-77
2023/01/23 12:29:21;;;;;;;33.72;19.70;;;0.70;82.10;;;;;;4951944;28;20045;-78
2023/01/23 12:32:05;;;;;;;31.73;18.05;;;0.60;81.80;;;;;;4952018;29;20027;-77
2023/01/23 12:35:07;;;;;;;33.80;18.73;;;0.70;81.90;;;;;;4951557;28;20499;-78
2023/01/23 12:38:00;;;;;;;34.17;19.08;;;0.70;81.40;;;;;;4951405;29;20427;-75
2023/01/23 12:40:39;;;;;;;30.77;17.98;;;0.80;81.10;;;;;;4951483;28;20497;-77
2023/01/23 12:43:18;;;;;;;32.85;19.40;;;0.70;81.20;;;;;;4950878;29;20043;-75
2023/01/23 12:45:56;;;;;;;33.70;18.73;;;0.60;81.50;;;;;;4951328;29;20357;-75
2023/01/23 12:48:28;;;;;;;33.95;19.58;;;0.60;81.60;;;;;;4951334;29;20024;-79
2023/01/23 12:51:11;;;;;;;37.60;20.70;;;0.70;81.70;;;;;;4951789;29;20480;-76
2023/01/23 12:53:40;;;;;;;35.17;19.90;;;0.70;81.90;;;;;;4954658;29;20400;-76
2023/01/23 12:56:28;;;;;;;34.85;19.00;;;0.70;82.20;;;;;;4937210;29;20019;-76
2023/01/23 12:59:20;;;;;;;39.25;20.75;;;0.70;82.10;;;;;;4954759;28;20019;-76
2023/01/23 13:02:13;;;;;;;39.03;21.27;;;0.80;82.10;;;;;;4954461;28;20058;-77